29°C Temp
12°C Dewpoint
35% Humidity
Temperature
8 KM/H
5 MPH
4 KTS
60°
East North
East

Wind Speed
Clear
Conditions
Pressure 1008.81 (hPa) - 29.79 (in)
Visibility 6.0 (mi) - 9.7 (km)

Current Conditions
LGAV
Location 35(km)
Metar :LGAV 240620Z 06004KT 020V100 CAVOK 29/12 Q1009 NOSIG
Mon 24th June 08:20 am

Airport
  Metar Aviation API Data Provided by https://www.checkwx.com/ PHP scripts by weather34.com ©2024